sensor_id;sensor_type;location;lat;lon;timestamp;P1;durP1;ratioP1;P2;durP2;ratioP2
56455;SDS011;42354;53.218;6.564;2023-03-02T00:04:16;31.50;;;15.93;;
56455;SDS011;42354;53.218;6.564;2023-03-02T00:06:46;32.10;;;14.77;;
56455;SDS011;42354;53.218;6.564;2023-03-02T00:09:15;33.05;;;15.30;;
56455;SDS011;42354;53.218;6.564;2023-03-02T00:11:41;27.88;;;13.65;;
56455;SDS011;42354;53.218;6.564;2023-03-02T00:14:07;27.55;;;14.52;;
56455;SDS011;42354;53.218;6.564;2023-03-02T00:16:33;28.00;;;13.38;;
56455;SDS011;42354;53.218;6.564;2023-03-02T00:18:58;35.67;;;17.05;;
56455;SDS011;42354;53.218;6.564;2023-03-02T00:21:24;33.53;;;14.77;;
56455;SDS011;42354;53.218;6.564;2023-03-02T00:23:50;30.58;;;14.90;;
56455;SDS011;42354;53.218;6.564;2023-03-02T00:26:16;28.15;;;13.88;;
56455;SDS011;42354;53.218;6.564;2023-03-02T00:28:42;28.98;;;13.85;;
56455;SDS011;42354;53.218;6.564;2023-03-02T00:31:08;29.23;;;13.88;;
56455;SDS011;42354;53.218;6.564;2023-03-02T00:33:33;25.90;;;13.75;;
56455;SDS011;42354;53.218;6.564;2023-03-02T00:35:59;24.67;;;12.75;;
56455;SDS011;42354;53.218;6.564;2023-03-02T00:38:27;27.35;;;13.70;;
56455;SDS011;42354;53.218;6.564;2023-03-02T00:40:52;24.25;;;13.52;;
56455;SDS011;42354;53.218;6.564;2023-03-02T00:43:20;32.72;;;13.70;;
56455;SDS011;42354;53.218;6.564;2023-03-02T00:45:51;26.80;;;13.48;;
56455;SDS011;42354;53.218;6.564;2023-03-02T00:48:17;27.98;;;14.23;;
56455;SDS011;42354;53.218;6.564;2023-03-02T00:50:43;37.72;;;17.35;;
56455;SDS011;42354;53.218;6.564;2023-03-02T00:53:14;30.63;;;15.90;;
56455;SDS011;42354;53.218;6.564;2023-03-02T00:55:51;36.08;;;15.88;;
56455;SDS011;42354;53.218;6.564;2023-03-02T00:58:18;35.03;;;15.75;;
56455;SDS011;42354;53.218;6.564;2023-03-02T01:00:45;34.55;;;16.65;;
56455;SDS011;42354;53.218;6.564;2023-03-02T01:03:10;30.02;;;15.20;;
56455;SDS011;42354;53.218;6.564;2023-03-02T01:05:36;28.70;;;14.23;;
56455;SDS011;42354;53.218;6.564;2023-03-02T01:08:02;31.17;;;14.35;;
56455;SDS011;42354;53.218;6.564;2023-03-02T01:10:29;24.83;;;13.02;;
56455;SDS011;42354;53.218;6.564;2023-03-02T01:12:56;39.50;;;17.85;;
56455;SDS011;42354;53.218;6.564;2023-03-02T01:15:21;33.50;;;15.13;;
56455;SDS011;42354;53.218;6.564;2023-03-02T01:17:49;37.17;;;16.98;;
56455;SDS011;42354;53.218;6.564;2023-03-02T01:20:15;31.02;;;14.73;;
56455;SDS011;42354;53.218;6.564;2023-03-02T01:22:42;29.30;;;14.73;;
56455;SDS011;42354;53.218;6.564;2023-03-02T01:25:09;29.60;;;15.00;;
56455;SDS011;42354;53.218;6.564;2023-03-02T01:27:35;36.22;;;16.38;;
56455;SDS011;42354;53.218;6.564;2023-03-02T01:30:04;39.88;;;17.55;;
56455;SDS011;42354;53.218;6.564;2023-03-02T01:32:30;42.80;;;18.40;;
56455;SDS011;42354;53.218;6.564;2023-03-02T01:34:55;38.53;;;16.88;;
56455;SDS011;42354;53.218;6.564;2023-03-02T01:37:21;40.05;;;18.42;;
56455;SDS011;42354;53.218;6.564;2023-03-02T01:39:47;48.83;;;22.25;;
56455;SDS011;42354;53.218;6.564;2023-03-02T01:42:13;49.65;;;21.65;;
56455;SDS011;42354;53.218;6.564;2023-03-02T01:44:44;51.00;;;20.75;;
56455;SDS011;42354;53.218;6.564;2023-03-02T01:47:14;53.10;;;21.50;;
56455;SDS011;42354;53.218;6.564;2023-03-02T01:50:27;45.78;;;21.20;;
56455;SDS011;42354;53.218;6.564;2023-03-02T01:52:44;46.95;;;20.65;;
56455;SDS011;42354;53.218;6.564;2023-03-02T01:55:11;51.08;;;22.08;;
56455;SDS011;42354;53.218;6.564;2023-03-02T01:57:42;47.28;;;21.70;;
56455;SDS011;42354;53.218;6.564;2023-03-02T02:00:13;54.30;;;23.25;;
56455;SDS011;42354;53.218;6.564;2023-03-02T02:02:43;58.20;;;23.55;;
56455;SDS011;42354;53.218;6.564;2023-03-02T02:05:10;51.88;;;22.25;;
56455;SDS011;42354;53.218;6.564;2023-03-02T02:07:39;51.28;;;22.85;;
56455;SDS011;42354;53.218;6.564;2023-03-02T02:10:06;53.95;;;20.98;;
56455;SDS011;42354;53.218;6.564;2023-03-02T02:12:32;57.47;;;23.30;;
56455;SDS011;42354;53.218;6.564;2023-03-02T02:14:58;56.75;;;24.42;;
56455;SDS011;42354;53.218;6.564;2023-03-02T02:17:25;53.95;;;23.33;;
56455;SDS011;42354;53.218;6.564;2023-03-02T02:19:55;57.97;;;24.08;;
56455;SDS011;42354;53.218;6.564;2023-03-02T02:22:39;55.65;;;23.75;;
56455;SDS011;42354;53.218;6.564;2023-03-02T02:25:39;58.55;;;24.63;;
56455;SDS011;42354;53.218;6.564;2023-03-02T02:28:10;56.97;;;23.05;;
56455;SDS011;42354;53.218;6.564;2023-03-02T02:30:39;63.83;;;25.33;;
56455;SDS011;42354;53.218;6.564;2023-03-02T02:33:06;65.97;;;25.60;;
56455;SDS011;42354;53.218;6.564;2023-03-02T02:35:38;63.75;;;24.55;;
56455;SDS011;42354;53.218;6.564;2023-03-02T02:38:06;62.53;;;24.73;;
56455;SDS011;42354;53.218;6.564;2023-03-02T02:43:32;64.78;;;25.00;;
56455;SDS011;42354;53.218;6.564;2023-03-02T02:45:57;62.33;;;25.52;;
56455;SDS011;42354;53.218;6.564;2023-03-02T02:48:25;60.17;;;25.00;;
56455;SDS011;42354;53.218;6.564;2023-03-02T02:50:54;59.75;;;25.45;;
56455;SDS011;42354;53.218;6.564;2023-03-02T02:53:27;68.57;;;27.58;;
56455;SDS011;42354;53.218;6.564;2023-03-02T02:56:02;72.07;;;26.60;;
56455;SDS011;42354;53.218;6.564;2023-03-02T02:58:39;67.85;;;27.40;;
56455;SDS011;42354;53.218;6.564;2023-03-02T03:01:10;69.25;;;27.08;;
56455;SDS011;42354;53.218;6.564;2023-03-02T03:03:39;62.42;;;25.63;;
56455;SDS011;42354;53.218;6.564;2023-03-02T03:06:13;65.80;;;26.45;;
56455;SDS011;42354;53.218;6.564;2023-03-02T03:11:10;104.93;;;34.60;;
56455;SDS011;42354;53.218;6.564;2023-03-02T03:13:37;107.20;;;33.83;;
56455;SDS011;42354;53.218;6.564;2023-03-02T03:16:04;115.65;;;36.22;;
56455;SDS011;42354;53.218;6.564;2023-03-02T03:18:33;105.22;;;35.15;;
56455;SDS011;42354;53.218;6.564;2023-03-02T03:20:59;99.40;;;32.45;;
56455;SDS011;42354;53.218;6.564;2023-03-02T03:23:24;112.93;;;34.28;;
56455;SDS011;42354;53.218;6.564;2023-03-02T03:25:50;101.55;;;34.83;;
56455;SDS011;42354;53.218;6.564;2023-03-02T03:28:15;98.65;;;34.40;;
56455;SDS011;42354;53.218;6.564;2023-03-02T03:30:42;96.70;;;34.45;;
56455;SDS011;42354;53.218;6.564;2023-03-02T03:33:08;95.40;;;32.70;;
56455;SDS011;42354;53.218;6.564;2023-03-02T03:35:35;102.95;;;33.67;;
56455;SDS011;42354;53.218;6.564;2023-03-02T03:38:02;99.65;;;35.20;;
56455;SDS011;42354;53.218;6.564;2023-03-02T03:40:29;107.70;;;35.53;;
56455;SDS011;42354;53.218;6.564;2023-03-02T03:42:58;109.00;;;35.58;;
56455;SDS011;42354;53.218;6.564;2023-03-02T03:45:24;101.43;;;34.85;;
56455;SDS011;42354;53.218;6.564;2023-03-02T03:47:49;105.03;;;36.20;;
56455;SDS011;42354;53.218;6.564;2023-03-02T03:50:15;89.90;;;33.65;;
56455;SDS011;42354;53.218;6.564;2023-03-02T03:52:40;94.78;;;33.90;;
56455;SDS011;42354;53.218;6.564;2023-03-02T03:55:05;100.68;;;36.22;;
56455;SDS011;42354;53.218;6.564;2023-03-02T03:57:31;103.18;;;36.67;;
56455;SDS011;42354;53.218;6.564;2023-03-02T03:59:57;134.32;;;35.28;;
56455;SDS011;42354;53.218;6.564;2023-03-02T04:02:22;102.07;;;34.85;;
56455;SDS011;42354;53.218;6.564;2023-03-02T04:04:49;114.20;;;36.42;;
56455;SDS011;42354;53.218;6.564;2023-03-02T04:07:14;102.60;;;34.00;;
56455;SDS011;42354;53.218;6.564;2023-03-02T04:09:40;105.78;;;35.45;;
56455;SDS011;42354;53.218;6.564;2023-03-02T04:12:06;105.43;;;34.50;;
56455;SDS011;42354;53.218;6.564;2023-03-02T04:14:33;113.63;;;34.78;;
56455;SDS011;42354;53.218;6.564;2023-03-02T04:16:58;147.57;;;37.28;;
56455;SDS011;42354;53.218;6.564;2023-03-02T04:19:24;149.32;;;38.80;;
56455;SDS011;42354;53.218;6.564;2023-03-02T04:21:51;168.05;;;37.65;;
56455;SDS011;42354;53.218;6.564;2023-03-02T04:24:19;253.35;;;45.88;;
56455;SDS011;42354;53.218;6.564;2023-03-02T04:26:47;313.00;;;47.33;;
56455;SDS011;42354;53.218;6.564;2023-03-02T04:29:13;264.30;;;45.80;;
56455;SDS011;42354;53.218;6.564;2023-03-02T04:31:39;259.60;;;47.00;;
56455;SDS011;42354;53.218;6.564;2023-03-02T04:34:05;266.17;;;49.85;;
56455;SDS011;42354;53.218;6.564;2023-03-02T04:36:32;224.98;;;43.13;;
56455;SDS011;42354;53.218;6.564;2023-03-02T04:38:59;242.80;;;44.00;;
56455;SDS011;42354;53.218;6.564;2023-03-02T04:41:25;324.00;;;48.45;;
56455;SDS011;42354;53.218;6.564;2023-03-02T04:43:50;296.17;;;48.47;;
56455;SDS011;42354;53.218;6.564;2023-03-02T04:46:22;232.55;;;43.17;;
56455;SDS011;42354;53.218;6.564;2023-03-02T04:48:51;269.67;;;47.58;;
56455;SDS011;42354;53.218;6.564;2023-03-02T04:51:22;275.02;;;47.42;;
56455;SDS011;42354;53.218;6.564;2023-03-02T04:53:54;289.30;;;48.78;;
56455;SDS011;42354;53.218;6.564;2023-03-02T04:56:22;330.23;;;53.25;;
56455;SDS011;42354;53.218;6.564;2023-03-02T04:58:48;317.08;;;48.67;;
56455;SDS011;42354;53.218;6.564;2023-03-02T05:01:14;200.60;;;41.47;;
56455;SDS011;42354;53.218;6.564;2023-03-02T05:03:41;236.65;;;41.50;;
56455;SDS011;42354;53.218;6.564;2023-03-02T05:06:06;479.02;;;54.75;;
56455;SDS011;42354;53.218;6.564;2023-03-02T05:08:32;415.02;;;52.30;;
56455;SDS011;42354;53.218;6.564;2023-03-02T05:10:58;435.50;;;53.67;;
56455;SDS011;42354;53.218;6.564;2023-03-02T05:13:24;303.50;;;45.35;;
56455;SDS011;42354;53.218;6.564;2023-03-02T05:15:50;391.83;;;51.03;;
56455;SDS011;42354;53.218;6.564;2023-03-02T05:18:17;509.95;;;57.15;;
56455;SDS011;42354;53.218;6.564;2023-03-02T05:20:43;496.02;;;58.20;;
56455;SDS011;42354;53.218;6.564;2023-03-02T05:23:09;346.17;;;44.35;;
56455;SDS011;42354;53.218;6.564;2023-03-02T05:25:36;424.52;;;52.88;;
56455;SDS011;42354;53.218;6.564;2023-03-02T05:28:02;391.08;;;49.15;;
56455;SDS011;42354;53.218;6.564;2023-03-02T05:30:29;454.33;;;55.60;;
56455;SDS011;42354;53.218;6.564;2023-03-02T05:32:56;459.17;;;56.92;;
56455;SDS011;42354;53.218;6.564;2023-03-02T05:35:22;406.50;;;51.95;;
56455;SDS011;42354;53.218;6.564;2023-03-02T05:37:49;418.35;;;55.28;;
56455;SDS011;42354;53.218;6.564;2023-03-02T05:40:16;459.40;;;55.92;;
56455;SDS011;42354;53.218;6.564;2023-03-02T05:42:43;402.75;;;53.67;;
56455;SDS011;42354;53.218;6.564;2023-03-02T05:45:16;257.88;;;40.88;;
56455;SDS011;42354;53.218;6.564;2023-03-02T05:47:46;440.50;;;51.92;;
56455;SDS011;42354;53.218;6.564;2023-03-02T05:50:11;463.88;;;56.13;;
56455;SDS011;42354;53.218;6.564;2023-03-02T05:52:37;473.58;;;58.22;;
56455;SDS011;42354;53.218;6.564;2023-03-02T05:55:02;423.20;;;51.97;;
56455;SDS011;42354;53.218;6.564;2023-03-02T05:57:28;372.98;;;49.47;;
56455;SDS011;42354;53.218;6.564;2023-03-02T05:59:53;325.25;;;45.78;;
56455;SDS011;42354;53.218;6.564;2023-03-02T06:02:19;408.65;;;51.47;;
56455;SDS011;42354;53.218;6.564;2023-03-02T06:04:44;443.13;;;56.80;;
56455;SDS011;42354;53.218;6.564;2023-03-02T06:07:10;280.17;;;45.28;;
56455;SDS011;42354;53.218;6.564;2023-03-02T06:09:36;215.77;;;42.03;;
56455;SDS011;42354;53.218;6.564;2023-03-02T06:12:02;362.50;;;47.63;;
56455;SDS011;42354;53.218;6.564;2023-03-02T06:14:28;469.90;;;60.65;;
56455;SDS011;42354;53.218;6.564;2023-03-02T06:16:54;357.70;;;50.50;;
56455;SDS011;42354;53.218;6.564;2023-03-02T06:19:19;344.58;;;51.67;;
56455;SDS011;42354;53.218;6.564;2023-03-02T06:21:45;462.38;;;61.53;;
56455;SDS011;42354;53.218;6.564;2023-03-02T06:24:10;375.20;;;50.88;;
56455;SDS011;42354;53.218;6.564;2023-03-02T06:26:35;477.05;;;62.50;;
56455;SDS011;42354;53.218;6.564;2023-03-02T06:29:01;497.73;;;69.35;;
56455;SDS011;42354;53.218;6.564;2023-03-02T06:31:26;408.67;;;57.28;;
56455;SDS011;42354;53.218;6.564;2023-03-02T06:33:51;552.67;;;74.60;;
56455;SDS011;42354;53.218;6.564;2023-03-02T06:36:17;316.20;;;50.33;;
56455;SDS011;42354;53.218;6.564;2023-03-02T06:38:43;384.27;;;57.05;;
56455;SDS011;42354;53.218;6.564;2023-03-02T06:41:08;411.80;;;57.72;;
56455;SDS011;42354;53.218;6.564;2023-03-02T06:43:33;640.65;;;78.40;;
56455;SDS011;42354;53.218;6.564;2023-03-02T06:45:59;467.80;;;67.60;;
56455;SDS011;42354;53.218;6.564;2023-03-02T06:48:24;522.78;;;73.82;;
56455;SDS011;42354;53.218;6.564;2023-03-02T06:50:51;464.58;;;62.30;;
56455;SDS011;42354;53.218;6.564;2023-03-02T06:53:17;411.10;;;57.33;;
56455;SDS011;42354;53.218;6.564;2023-03-02T06:55:46;389.13;;;56.30;;
56455;SDS011;42354;53.218;6.564;2023-03-02T06:58:11;380.55;;;51.33;;
56455;SDS011;42354;53.218;6.564;2023-03-02T07:00:37;517.92;;;65.25;;
56455;SDS011;42354;53.218;6.564;2023-03-02T07:03:03;280.70;;;45.20;;
56455;SDS011;42354;53.218;6.564;2023-03-02T07:05:29;330.17;;;47.40;;
56455;SDS011;42354;53.218;6.564;2023-03-02T07:07:56;366.67;;;52.30;;
56455;SDS011;42354;53.218;6.564;2023-03-02T07:10:22;482.17;;;64.80;;
56455;SDS011;42354;53.218;6.564;2023-03-02T07:12:48;354.67;;;49.88;;
56455;SDS011;42354;53.218;6.564;2023-03-02T07:15:13;372.27;;;53.78;;
56455;SDS011;42354;53.218;6.564;2023-03-02T07:17:40;309.15;;;46.95;;
56455;SDS011;42354;53.218;6.564;2023-03-02T07:20:07;413.13;;;55.47;;
56455;SDS011;42354;53.218;6.564;2023-03-02T07:22:34;465.10;;;57.50;;
56455;SDS011;42354;53.218;6.564;2023-03-02T07:24:59;187.50;;;38.95;;
56455;SDS011;42354;53.218;6.564;2023-03-02T07:27:25;361.17;;;53.70;;
56455;SDS011;42354;53.218;6.564;2023-03-02T07:29:50;368.52;;;53.20;;
56455;SDS011;42354;53.218;6.564;2023-03-02T07:32:15;344.23;;;51.10;;
56455;SDS011;42354;53.218;6.564;2023-03-02T07:34:41;352.60;;;52.97;;
56455;SDS011;42354;53.218;6.564;2023-03-02T07:37:06;300.70;;;46.45;;
56455;SDS011;42354;53.218;6.564;2023-03-02T07:39:32;324.83;;;47.53;;
56455;SDS011;42354;53.218;6.564;2023-03-02T07:41:58;334.73;;;49.38;;
56455;SDS011;42354;53.218;6.564;2023-03-02T07:44:24;289.00;;;50.25;;
56455;SDS011;42354;53.218;6.564;2023-03-02T07:46:50;254.10;;;44.58;;
56455;SDS011;42354;53.218;6.564;2023-03-02T07:49:15;260.73;;;48.95;;
56455;SDS011;42354;53.218;6.564;2023-03-02T07:51:41;286.98;;;46.08;;
56455;SDS011;42354;53.218;6.564;2023-03-02T07:54:06;361.05;;;51.03;;
56455;SDS011;42354;53.218;6.564;2023-03-02T07:56:32;267.45;;;46.25;;
56455;SDS011;42354;53.218;6.564;2023-03-02T07:58:57;349.40;;;50.17;;
56455;SDS011;42354;53.218;6.564;2023-03-02T08:01:23;248.63;;;44.13;;
56455;SDS011;42354;53.218;6.564;2023-03-02T08:03:51;219.23;;;44.85;;
56455;SDS011;42354;53.218;6.564;2023-03-02T08:06:17;256.58;;;45.08;;
56455;SDS011;42354;53.218;6.564;2023-03-02T08:08:42;160.23;;;41.10;;
56455;SDS011;42354;53.218;6.564;2023-03-02T08:11:09;186.65;;;40.70;;
56455;SDS011;42354;53.218;6.564;2023-03-02T08:13:37;133.02;;;37.03;;
56455;SDS011;42354;53.218;6.564;2023-03-02T08:16:04;176.20;;;37.13;;
56455;SDS011;42354;53.218;6.564;2023-03-02T08:18:31;161.40;;;35.65;;
56455;SDS011;42354;53.218;6.564;2023-03-02T08:20:57;164.38;;;37.55;;
56455;SDS011;42354;53.218;6.564;2023-03-02T08:23:23;192.20;;;41.78;;
56455;SDS011;42354;53.218;6.564;2023-03-02T08:25:48;264.60;;;46.25;;
56455;SDS011;42354;53.218;6.564;2023-03-02T08:28:14;150.48;;;36.42;;
56455;SDS011;42354;53.218;6.564;2023-03-02T08:30:39;178.23;;;34.33;;
56455;SDS011;42354;53.218;6.564;2023-03-02T08:33:05;205.48;;;39.05;;
56455;SDS011;42354;53.218;6.564;2023-03-02T08:35:30;118.93;;;34.20;;
56455;SDS011;42354;53.218;6.564;2023-03-02T08:37:56;112.57;;;30.33;;
56455;SDS011;42354;53.218;6.564;2023-03-02T08:40:23;116.40;;;29.60;;
56455;SDS011;42354;53.218;6.564;2023-03-02T08:42:49;78.80;;;27.38;;
56455;SDS011;42354;53.218;6.564;2023-03-02T08:45:21;101.20;;;29.88;;
56455;SDS011;42354;53.218;6.564;2023-03-02T08:47:51;90.72;;;26.95;;
56455;SDS011;42354;53.218;6.564;2023-03-02T08:50:17;101.22;;;28.75;;
56455;SDS011;42354;53.218;6.564;2023-03-02T08:52:42;89.10;;;28.92;;
56455;SDS011;42354;53.218;6.564;2023-03-02T08:55:08;100.00;;;30.27;;
56455;SDS011;42354;53.218;6.564;2023-03-02T08:57:34;83.50;;;27.02;;
56455;SDS011;42354;53.218;6.564;2023-03-02T09:00:00;67.65;;;25.38;;
56455;SDS011;42354;53.218;6.564;2023-03-02T09:02:25;57.75;;;22.30;;
56455;SDS011;42354;53.218;6.564;2023-03-02T09:04:50;60.17;;;22.48;;
56455;SDS011;42354;53.218;6.564;2023-03-02T09:07:16;65.70;;;23.67;;
56455;SDS011;42354;53.218;6.564;2023-03-02T09:09:41;65.25;;;24.00;;
56455;SDS011;42354;53.218;6.564;2023-03-02T09:12:07;63.17;;;22.83;;
56455;SDS011;42354;53.218;6.564;2023-03-02T09:14:33;60.28;;;23.17;;
56455;SDS011;42354;53.218;6.564;2023-03-02T09:16:59;62.00;;;22.88;;
56455;SDS011;42354;53.218;6.564;2023-03-02T09:19:24;64.80;;;22.75;;
56455;SDS011;42354;53.218;6.564;2023-03-02T09:21:50;68.35;;;22.38;;
56455;SDS011;42354;53.218;6.564;2023-03-02T09:24:15;55.88;;;20.80;;
56455;SDS011;42354;53.218;6.564;2023-03-02T09:26:40;60.08;;;22.25;;
56455;SDS011;42354;53.218;6.564;2023-03-02T09:29:06;63.30;;;20.08;;
56455;SDS011;42354;53.218;6.564;2023-03-02T09:31:32;82.05;;;22.50;;
56455;SDS011;42354;53.218;6.564;2023-03-02T09:33:58;54.42;;;21.83;;
56455;SDS011;42354;53.218;6.564;2023-03-02T09:36:24;58.80;;;20.83;;
56455;SDS011;42354;53.218;6.564;2023-03-02T09:38:50;56.33;;;21.88;;
56455;SDS011;42354;53.218;6.564;2023-03-02T09:46:49;62.88;;;22.20;;
56455;SDS011;42354;53.218;6.564;2023-03-02T09:49:35;58.72;;;22.08;;
56455;SDS011;42354;53.218;6.564;2023-03-02T09:54:52;51.67;;;20.80;;
56455;SDS011;42354;53.218;6.564;2023-03-02T09:57:20;51.67;;;20.92;;
56455;SDS011;42354;53.218;6.564;2023-03-02T09:59:51;54.13;;;21.42;;
56455;SDS011;42354;53.218;6.564;2023-03-02T10:02:25;41.08;;;18.70;;
56455;SDS011;42354;53.218;6.564;2023-03-02T10:04:55;44.43;;;19.03;;
56455;SDS011;42354;53.218;6.564;2023-03-02T10:07:32;49.92;;;22.20;;
56455;SDS011;42354;53.218;6.564;2023-03-02T10:10:16;50.00;;;20.90;;
56455;SDS011;42354;53.218;6.564;2023-03-02T10:21:40;40.55;;;17.33;;
56455;SDS011;42354;53.218;6.564;2023-03-02T10:26:46;42.42;;;18.98;;
56455;SDS011;42354;53.218;6.564;2023-03-02T10:29:27;42.22;;;18.58;;
56455;SDS011;42354;53.218;6.564;2023-03-02T10:32:17;40.55;;;16.92;;
56455;SDS011;42354;53.218;6.564;2023-03-02T10:37:19;39.50;;;16.85;;
56455;SDS011;42354;53.218;6.564;2023-03-02T10:39:48;34.72;;;15.77;;
56455;SDS011;42354;53.218;6.564;2023-03-02T10:42:25;33.28;;;15.98;;
56455;SDS011;42354;53.218;6.564;2023-03-02T10:44:56;32.47;;;15.55;;
56455;SDS011;42354;53.218;6.564;2023-03-02T10:47:43;34.63;;;16.75;;
56455;SDS011;42354;53.218;6.564;2023-03-02T10:50:22;31.08;;;14.95;;
56455;SDS011;42354;53.218;6.564;2023-03-02T10:52:48;34.20;;;16.17;;
56455;SDS011;42354;53.218;6.564;2023-03-02T10:55:14;26.90;;;13.43;;
56455;SDS011;42354;53.218;6.564;2023-03-02T10:57:44;28.60;;;13.32;;
56455;SDS011;42354;53.218;6.564;2023-03-02T11:05:19;27.25;;;13.00;;
56455;SDS011;42354;53.218;6.564;2023-03-02T11:10:33;28.02;;;13.25;;
56455;SDS011;42354;53.218;6.564;2023-03-02T11:13:01;29.33;;;13.73;;
56455;SDS011;42354;53.218;6.564;2023-03-02T11:15:42;27.35;;;12.55;;
56455;SDS011;42354;53.218;6.564;2023-03-02T11:20:47;26.05;;;12.80;;
56455;SDS011;42354;53.218;6.564;2023-03-02T11:23:18;28.55;;;13.50;;
56455;SDS011;42354;53.218;6.564;2023-03-02T11:26:05;24.90;;;13.33;;
56455;SDS011;42354;53.218;6.564;2023-03-02T11:31:16;28.02;;;13.50;;
56455;SDS011;42354;53.218;6.564;2023-03-02T11:34:04;29.95;;;13.45;;
56455;SDS011;42354;53.218;6.564;2023-03-02T11:42:35;24.60;;;12.10;;
56455;SDS011;42354;53.218;6.564;2023-03-02T11:45:16;24.45;;;11.88;;
56455;SDS011;42354;53.218;6.564;2023-03-02T11:47:50;24.38;;;12.00;;
56455;SDS011;42354;53.218;6.564;2023-03-02T11:50:25;25.17;;;12.82;;
56455;SDS011;42354;53.218;6.564;2023-03-02T11:52:52;26.23;;;13.13;;
56455;SDS011;42354;53.218;6.564;2023-03-02T11:55:22;23.33;;;11.82;;
56455;SDS011;42354;53.218;6.564;2023-03-02T11:57:54;22.60;;;11.23;;
56455;SDS011;42354;53.218;6.564;2023-03-02T12:00:28;27.58;;;13.18;;
56455;SDS011;42354;53.218;6.564;2023-03-02T12:03:01;27.73;;;13.43;;
56455;SDS011;42354;53.218;6.564;2023-03-02T12:05:30;27.73;;;13.15;;
56455;SDS011;42354;53.218;6.564;2023-03-02T12:08:28;24.55;;;12.65;;
56455;SDS011;42354;53.218;6.564;2023-03-02T12:13:32;24.92;;;12.63;;
56455;SDS011;42354;53.218;6.564;2023-03-02T12:16:00;23.67;;;12.10;;
56455;SDS011;42354;53.218;6.564;2023-03-02T12:18:30;22.20;;;11.05;;
56455;SDS011;42354;53.218;6.564;2023-03-02T12:21:07;20.90;;;10.52;;
56455;SDS011;42354;53.218;6.564;2023-03-02T12:23:35;22.63;;;11.50;;
56455;SDS011;42354;53.218;6.564;2023-03-02T12:26:29;24.15;;;11.88;;
56455;SDS011;42354;53.218;6.564;2023-03-02T12:31:46;22.63;;;11.63;;
56455;SDS011;42354;53.218;6.564;2023-03-02T12:36:45;25.95;;;13.35;;
56455;SDS011;42354;53.218;6.564;2023-03-02T12:39:19;24.40;;;12.45;;
56455;SDS011;42354;53.218;6.564;2023-03-02T12:47:50;28.85;;;14.02;;
56455;SDS011;42354;53.218;6.564;2023-03-02T12:50:23;29.63;;;15.80;;
56455;SDS011;42354;53.218;6.564;2023-03-02T12:53:14;27.92;;;15.10;;
56455;SDS011;42354;53.218;6.564;2023-03-02T12:55:42;27.35;;;14.68;;
56455;SDS011;42354;53.218;6.564;2023-03-02T12:58:21;23.77;;;14.68;;
56455;SDS011;42354;53.218;6.564;2023-03-02T13:00:59;24.98;;;13.52;;
56455;SDS011;42354;53.218;6.564;2023-03-02T13:03:28;26.17;;;14.23;;
56455;SDS011;42354;53.218;6.564;2023-03-02T13:06:02;24.33;;;13.80;;
56455;SDS011;42354;53.218;6.564;2023-03-02T13:08:35;22.05;;;13.13;;
56455;SDS011;42354;53.218;6.564;2023-03-02T13:11:01;31.85;;;14.02;;
56455;SDS011;42354;53.218;6.564;2023-03-02T13:18:55;30.42;;;17.33;;
56455;SDS011;42354;53.218;6.564;2023-03-02T13:21:30;34.03;;;17.95;;
56455;SDS011;42354;53.218;6.564;2023-03-02T13:23:58;31.73;;;16.65;;
56455;SDS011;42354;53.218;6.564;2023-03-02T13:26:27;31.17;;;16.45;;
56455;SDS011;42354;53.218;6.564;2023-03-02T13:28:59;30.90;;;16.65;;
56455;SDS011;42354;53.218;6.564;2023-03-02T13:31:29;33.00;;;16.85;;
56455;SDS011;42354;53.218;6.564;2023-03-02T13:33:55;35.42;;;18.10;;
56455;SDS011;42354;53.218;6.564;2023-03-02T13:38:56;23.92;;;12.45;;
56455;SDS011;42354;53.218;6.564;2023-03-02T13:41:24;24.98;;;13.00;;
56455;SDS011;42354;53.218;6.564;2023-03-02T13:43:51;21.55;;;12.50;;
56455;SDS011;42354;53.218;6.564;2023-03-02T13:48:52;26.25;;;14.48;;
56455;SDS011;42354;53.218;6.564;2023-03-02T13:51:45;30.40;;;15.70;;
56455;SDS011;42354;53.218;6.564;2023-03-02T13:54:13;31.40;;;15.63;;
56455;SDS011;42354;53.218;6.564;2023-03-02T13:56:44;25.60;;;13.75;;
56455;SDS011;42354;53.218;6.564;2023-03-02T13:59:13;23.63;;;11.93;;
56455;SDS011;42354;53.218;6.564;2023-03-02T14:01:41;18.88;;;10.85;;
56455;SDS011;42354;53.218;6.564;2023-03-02T14:04:11;23.08;;;10.63;;
56455;SDS011;42354;53.218;6.564;2023-03-02T14:06:39;19.17;;;10.90;;
56455;SDS011;42354;53.218;6.564;2023-03-02T14:09:04;21.15;;;11.43;;
56455;SDS011;42354;53.218;6.564;2023-03-02T14:11:30;21.73;;;11.02;;
56455;SDS011;42354;53.218;6.564;2023-03-02T14:14:01;21.40;;;11.30;;
56455;SDS011;42354;53.218;6.564;2023-03-02T14:16:30;19.10;;;10.75;;
56455;SDS011;42354;53.218;6.564;2023-03-02T14:18:59;20.17;;;10.32;;
56455;SDS011;42354;53.218;6.564;2023-03-02T14:21:24;19.17;;;10.35;;
56455;SDS011;42354;53.218;6.564;2023-03-02T14:23:51;20.55;;;10.20;;
56455;SDS011;42354;53.218;6.564;2023-03-02T14:28:48;17.08;;;9.18;;
56455;SDS011;42354;53.218;6.564;2023-03-02T14:31:14;17.40;;;9.45;;
56455;SDS011;42354;53.218;6.564;2023-03-02T14:33:39;19.08;;;8.80;;
56455;SDS011;42354;53.218;6.564;2023-03-02T14:36:06;18.48;;;8.90;;
56455;SDS011;42354;53.218;6.564;2023-03-02T14:38:37;19.23;;;9.98;;
56455;SDS011;42354;53.218;6.564;2023-03-02T14:41:02;17.25;;;9.02;;
56455;SDS011;42354;53.218;6.564;2023-03-02T14:43:27;15.93;;;8.05;;
56455;SDS011;42354;53.218;6.564;2023-03-02T14:45:54;15.05;;;7.75;;
56455;SDS011;42354;53.218;6.564;2023-03-02T14:48:20;16.50;;;8.10;;
56455;SDS011;42354;53.218;6.564;2023-03-02T14:50:46;18.13;;;9.05;;
56455;SDS011;42354;53.218;6.564;2023-03-02T14:53:17;15.63;;;8.35;;
56455;SDS011;42354;53.218;6.564;2023-03-02T14:55:46;26.92;;;14.18;;
56455;SDS011;42354;53.218;6.564;2023-03-02T14:58:16;25.85;;;14.00;;
56455;SDS011;42354;53.218;6.564;2023-03-02T15:00:44;30.23;;;15.48;;
56455;SDS011;42354;53.218;6.564;2023-03-02T15:03:14;27.05;;;14.23;;
56455;SDS011;42354;53.218;6.564;2023-03-02T15:05:41;29.48;;;15.20;;
56455;SDS011;42354;53.218;6.564;2023-03-02T15:08:11;28.48;;;15.18;;
56455;SDS011;42354;53.218;6.564;2023-03-02T15:10:37;32.80;;;14.43;;
56455;SDS011;42354;53.218;6.564;2023-03-02T15:13:08;29.92;;;14.15;;
56455;SDS011;42354;53.218;6.564;2023-03-02T15:15:34;30.10;;;14.93;;
56455;SDS011;42354;53.218;6.564;2023-03-02T15:18:02;33.33;;;17.80;;
56455;SDS011;42354;53.218;6.564;2023-03-02T15:20:28;33.40;;;18.52;;
56455;SDS011;42354;53.218;6.564;2023-03-02T15:22:54;38.33;;;20.08;;
56455;SDS011;42354;53.218;6.564;2023-03-02T15:25:19;37.63;;;23.42;;
56455;SDS011;42354;53.218;6.564;2023-03-02T15:27:48;38.50;;;22.65;;
56455;SDS011;42354;53.218;6.564;2023-03-02T15:30:13;41.10;;;22.25;;
56455;SDS011;42354;53.218;6.564;2023-03-02T15:32:39;39.10;;;21.48;;
56455;SDS011;42354;53.218;6.564;2023-03-02T15:35:04;37.65;;;21.65;;
56455;SDS011;42354;53.218;6.564;2023-03-02T15:37:30;42.97;;;23.08;;
56455;SDS011;42354;53.218;6.564;2023-03-02T15:39:56;44.60;;;22.10;;